Time;durP1;ratioP1;P1;durP2;ratioP2;P2;SDS_P1;SDS_P2;PMS_P1;PMS_P2;Temp;Humidity;BMP_temperature;BMP_pressure;BME280_temperature;BME280_humidity;BME280_pressure;Samples;Min_cycle;Max_cycle;Signal;HPM_P1;HPM_P2
2023/08/29 00:00:58;;;;;;;0.05;0.05;;;12.40;99.90;;;;;;5081402;28;20492;-63
2023/08/29 00:03:28;;;;;;;0.57;0.10;;;12.40;99.90;;;;;;5081958;28;20056;-63
2023/08/29 00:06:05;;;;;;;2.92;0.38;;;12.30;99.90;;;;;;5086154;28;20048;-63
2023/08/29 00:08:33;;;;;;;1.00;0.20;;;12.40;99.90;;;;;;5092928;28;20044;-63
2023/08/29 00:11:02;;;;;;;0.77;0.20;;;12.30;99.90;;;;;;5074472;28;20060;-63
2023/08/29 00:13:30;;;;;;;3.53;0.20;;;12.30;99.90;;;;;;5089853;28;20531;-63
2023/08/29 00:15:57;;;;;;;0.15;0.15;;;12.30;99.90;;;;;;5094178;28;20044;-63
2023/08/29 00:18:24;;;;;;;0.65;0.20;;;12.30;99.90;;;;;;5077325;28;20052;-63
2023/08/29 00:20:52;;;;;;;3.30;0.20;;;12.30;99.90;;;;;;5075374;28;20044;-63
2023/08/29 00:23:18;;;;;;;0.10;0.10;;;12.30;99.90;;;;;;5088559;28;20047;-63
2023/08/29 00:25:46;;;;;;;0.20;0.20;;;12.30;99.90;;;;;;5082231;28;20396;-62
2023/08/29 00:28:13;;;;;;;3.95;0.50;;;12.30;99.90;;;;;;5081671;28;20083;-62
2023/08/29 00:30:40;;;;;;;;;;;12.30;99.90;;;;;;5065573;28;20127;-63
2023/08/29 00:33:11;;;;;;;16.33;0.80;;;12.30;99.90;;;;;;5083234;28;20445;-63
2023/08/29 00:35:39;;;;;;;1.75;0.30;;;12.30;99.90;;;;;;5065362;28;20048;-62
2023/08/29 00:38:06;;;;;;;1.65;0.20;;;12.30;99.90;;;;;;5075251;28;20039;-63
2023/08/29 00:40:34;;;;;;;8.15;0.50;;;12.30;99.90;;;;;;5066047;28;20045;-62
2023/08/29 00:43:02;;;;;;;0.10;0.10;;;12.20;99.90;;;;;;5067216;28;20040;-63
2023/08/29 00:45:35;;;;;;;0.43;0.30;;;12.20;99.90;;;;;;5074799;28;20507;-62
2023/08/29 00:48:04;;;;;;;0.35;0.20;;;12.20;99.90;;;;;;5089911;28;20405;-62
2023/08/29 00:50:31;;;;;;;1.92;0.20;;;12.20;99.90;;;;;;5067101;28;20044;-63
2023/08/29 00:53:00;;;;;;;1.27;0.40;;;12.20;99.90;;;;;;5092744;28;20729;-63
2023/08/29 00:55:28;;;;;;;0.90;0.30;;;12.10;99.90;;;;;;5075202;28;20538;-62
2023/08/29 00:57:56;;;;;;;1.85;0.30;;;12.10;99.90;;;;;;5080110;28;20040;-62
2023/08/29 01:00:24;;;;;;;0.50;0.20;;;12.00;99.90;;;;;;5063583;28;20044;-63
2023/08/29 01:02:51;;;;;;;1.30;0.30;;;12.00;99.90;;;;;;5089562;28;20040;-62
2023/08/29 01:05:20;;;;;;;1.95;0.10;;;12.00;99.90;;;;;;5070061;28;20556;-62
2023/08/29 01:07:52;;;;;;;0.25;0.10;;;12.00;99.90;;;;;;5091883;28;20050;-63
2023/08/29 01:10:46;;;;;;;1.83;0.13;;;11.90;99.90;;;;;;5093266;28;20107;-63
2023/08/29 01:13:31;;;;;;;0.10;0.10;;;11.90;99.90;;;;;;5086117;28;20052;-63
2023/08/29 01:16:01;;;;;;;1.45;0.10;;;12.00;99.90;;;;;;5071530;28;20045;-63
2023/08/29 01:18:31;;;;;;;0.32;0.30;;;11.90;99.90;;;;;;5088677;28;20032;-63
2023/08/29 01:21:18;;;;;;;1.48;0.20;;;12.00;99.90;;;;;;5058584;28;20082;-63
2023/08/29 01:24:01;;;;;;;0.10;0.10;;;12.00;99.90;;;;;;5083525;28;20052;-63
2023/08/29 01:26:29;;;;;;;4.18;0.20;;;12.00;99.90;;;;;;5083456;28;20042;-63
2023/08/29 01:29:00;;;;;;;0.70;0.20;;;12.00;99.90;;;;;;5062758;28;20033;-63
2023/08/29 01:31:29;;;;;;;0.20;0.20;;;12.00;99.90;;;;;;5088613;28;20388;-63
2023/08/29 01:34:00;;;;;;;0.35;0.20;;;12.00;99.90;;;;;;5074218;28;20048;-63
2023/08/29 01:36:37;;;;;;;3.20;0.20;;;12.10;99.90;;;;;;5070978;28;20040;-63
2023/08/29 01:39:04;;;;;;;0.20;0.20;;;12.10;99.90;;;;;;5083734;28;20085;-63
2023/08/29 01:41:31;;;;;;;6.45;0.30;;;12.10;99.90;;;;;;5088395;28;20040;-63
2023/08/29 01:43:58;;;;;;;1.35;0.20;;;12.10;99.90;;;;;;5069049;28;20049;-62
2023/08/29 01:46:25;;;;;;;0.10;0.10;;;12.10;99.90;;;;;;5069899;28;20392;-62
2023/08/29 01:48:53;;;;;;;2.53;0.30;;;12.10;99.90;;;;;;5064571;28;20135;-62
2023/08/29 01:51:19;;;;;;;1.75;0.30;;;12.20;99.90;;;;;;5074304;28;20043;-62
2023/08/29 01:53:46;;;;;;;1.05;0.20;;;12.20;99.90;;;;;;5068766;28;20050;-62
2023/08/29 01:56:16;;;;;;;0.40;0.15;;;12.20;99.90;;;;;;5087208;28;20044;-63
2023/08/29 01:58:44;;;;;;;0.22;0.10;;;12.20;99.90;;;;;;5067688;28;20051;-63
2023/08/29 02:01:12;;;;;;;0.38;0.20;;;12.20;99.90;;;;;;5085615;28;20027;-63
2023/08/29 02:03:49;;;;;;;0.52;0.20;;;12.20;99.90;;;;;;5087481;28;20040;-63
2023/08/29 02:06:18;;;;;;;1.30;0.20;;;12.20;99.90;;;;;;5068081;28;20125;-63
2023/08/29 02:08:45;;;;;;;1.45;0.22;;;12.20;99.90;;;;;;5069988;28;20452;-63
2023/08/29 02:11:12;;;;;;;1.10;0.20;;;12.20;99.90;;;;;;5062103;28;20485;-63
2023/08/29 02:13:39;;;;;;;0.22;0.20;;;12.20;99.90;;;;;;5080381;28;20044;-63
2023/08/29 02:16:06;;;;;;;0.10;0.10;;;12.20;99.90;;;;;;5073641;28;20048;-63
2023/08/29 02:18:33;;;;;;;1.00;0.10;;;12.10;99.90;;;;;;5067133;28;20063;-63
2023/08/29 02:21:00;;;;;;;1.00;0.17;;;12.20;99.90;;;;;;5065305;28;20051;-63
2023/08/29 02:23:27;;;;;;;;;;;12.10;99.90;;;;;;5088553;28;20036;-63
2023/08/29 02:26:02;;;;;;;4.38;0.63;;;12.20;99.90;;;;;;5076439;28;19969;-63
2023/08/29 02:28:30;;;;;;;1.73;0.20;;;12.20;99.90;;;;;;5090395;28;20488;-63
2023/08/29 02:31:02;;;;;;;0.10;0.10;;;12.20;99.90;;;;;;5064885;28;20047;-62
2023/08/29 02:33:30;;;;;;;0.43;0.22;;;12.10;99.90;;;;;;5071795;28;20495;-63
2023/08/29 02:35:57;;;;;;;;;;;12.10;99.90;;;;;;5082156;28;20036;-63
2023/08/29 02:38:23;;;;;;;0.10;0.10;;;12.10;99.90;;;;;;5066910;28;19927;-63
2023/08/29 02:40:50;;;;;;;5.18;0.30;;;12.10;99.90;;;;;;5055938;28;20048;-63
2023/08/29 02:43:17;;;;;;;0.90;0.20;;;12.10;99.90;;;;;;5077852;28;20079;-63
2023/08/29 02:45:44;;;;;;;0.95;0.10;;;12.10;99.90;;;;;;5062005;28;20045;-63
2023/08/29 02:48:10;;;;;;;0.13;0.10;;;12.10;99.90;;;;;;5070880;28;20127;-63
2023/08/29 02:50:37;;;;;;;0.88;0.13;;;12.20;99.90;;;;;;5087876;28;20397;-63
2023/08/29 02:53:04;;;;;;;0.20;0.20;;;12.10;99.90;;;;;;5068528;28;20049;-63
2023/08/29 02:55:31;;;;;;;0.10;0.10;;;12.20;99.90;;;;;;5071396;28;20040;-63
2023/08/29 02:57:57;;;;;;;0.13;0.03;;;12.20;99.90;;;;;;5089938;28;20040;-63
2023/08/29 03:00:24;;;;;;;1.88;0.03;;;12.20;99.90;;;;;;5089763;28;20044;-63
2023/08/29 03:02:51;;;;;;;0.10;0.08;;;12.20;99.90;;;;;;5071307;28;20040;-63
2023/08/29 03:05:18;;;;;;;0.05;0.05;;;12.20;99.90;;;;;;5083395;28;20477;-63
2023/08/29 03:07:44;;;;;;;5.28;0.20;;;12.30;99.90;;;;;;5081663;28;20705;-63
2023/08/29 03:10:12;;;;;;;0.10;0.10;;;12.20;99.90;;;;;;5069009;28;20039;-63
2023/08/29 03:12:38;;;;;;;1.75;0.25;;;12.20;99.90;;;;;;5068590;28;20052;-63
2023/08/29 03:15:06;;;;;;;0.20;0.20;;;12.30;99.90;;;;;;5069637;28;20064;-63
2023/08/29 03:17:32;;;;;;;0.43;0.22;;;12.30;99.90;;;;;;5061191;28;20056;-63
2023/08/29 03:20:00;;;;;;;1.67;0.25;;;12.30;99.90;;;;;;5070111;28;20405;-63
2023/08/29 03:22:27;;;;;;;;;;;12.20;99.90;;;;;;5073501;28;20032;-63
2023/08/29 03:24:55;;;;;;;0.73;0.30;;;12.10;99.90;;;;;;5057213;28;19950;-63
2023/08/29 03:27:22;;;;;;;0.28;0.20;;;12.20;99.90;;;;;;5072468;28;20504;-63
2023/08/29 03:29:51;;;;;;;0.38;0.28;;;12.10;99.90;;;;;;5087959;28;20032;-63
2023/08/29 03:32:18;;;;;;;2.38;0.30;;;12.10;99.90;;;;;;5064929;28;20055;-62
2023/08/29 03:34:45;;;;;;;2.53;0.30;;;12.00;99.90;;;;;;5067281;28;20089;-63
2023/08/29 03:37:14;;;;;;;2.10;0.32;;;12.00;99.90;;;;;;5055025;28;20040;-62
2023/08/29 03:39:40;;;;;;;0.32;0.15;;;12.00;99.90;;;;;;5057918;28;20151;-63
2023/08/29 03:42:07;;;;;;;0.30;0.20;;;12.00;99.90;;;;;;5073380;28;20404;-63
2023/08/29 03:44:36;;;;;;;4.57;0.30;;;11.90;99.90;;;;;;5056830;28;20044;-63
2023/08/29 03:47:03;;;;;;;0.30;0.20;;;11.90;99.90;;;;;;5058307;28;20080;-62
2023/08/29 03:49:30;;;;;;;1.45;0.25;;;11.90;99.90;;;;;;5086023;28;20032;-63
2023/08/29 03:51:57;;;;;;;1.48;0.50;;;11.90;99.90;;;;;;5073086;28;20135;-63
2023/08/29 03:54:24;;;;;;;2.75;0.40;;;11.90;99.90;;;;;;5089946;28;20043;-63
2023/08/29 03:56:52;;;;;;;0.88;0.28;;;11.90;99.90;;;;;;5075240;28;20467;-63
2023/08/29 03:59:18;;;;;;;0.30;0.30;;;11.80;99.90;;;;;;5089509;28;20064;-63
2023/08/29 04:01:45;;;;;;;0.22;0.20;;;11.80;99.90;;;;;;5070726;28;20048;-63
2023/08/29 04:04:13;;;;;;;0.20;0.20;;;11.70;99.90;;;;;;5084472;28;20043;-63
2023/08/29 04:06:41;;;;;;;0.20;0.20;;;11.70;99.90;;;;;;5075808;28;20045;-63
2023/08/29 04:09:08;;;;;;;0.77;0.30;;;11.70;99.90;;;;;;5090566;28;20059;-63
2023/08/29 04:11:35;;;;;;;1.40;0.30;;;11.60;99.90;;;;;;5090874;28;20111;-63
2023/08/29 04:14:02;;;;;;;5.95;0.50;;;11.60;99.90;;;;;;5082329;28;20103;-63
2023/08/29 04:16:28;;;;;;;3.70;0.30;;;11.60;99.90;;;;;;5066742;28;20048;-62
2023/08/29 04:18:55;;;;;;;3.33;0.32;;;11.70;99.90;;;;;;5075268;28;20048;-63
2023/08/29 04:21:22;;;;;;;3.28;0.95;;;11.70;99.90;;;;;;5075333;28;20036;-63
2023/08/29 04:23:49;;;;;;;8.20;0.52;;;11.60;99.90;;;;;;5086368;28;20075;-63
2023/08/29 04:26:16;;;;;;;;;;;11.60;99.90;;;;;;5068407;28;20043;-63
2023/08/29 04:28:43;;;;;;;0.60;0.15;;;11.60;99.90;;;;;;5074979;28;19920;-63
2023/08/29 04:31:11;;;;;;;0.80;0.30;;;11.50;99.90;;;;;;5072275;28;20424;-63
2023/08/29 04:33:39;;;;;;;2.00;0.30;;;11.50;99.90;;;;;;5062390;28;20074;-63
2023/08/29 04:36:05;;;;;;;3.85;0.32;;;11.50;99.90;;;;;;5084423;28;20048;-63
2023/08/29 04:38:32;;;;;;;2.78;0.47;;;11.50;99.90;;;;;;5065979;28;20036;-63
2023/08/29 04:40:59;;;;;;;0.68;0.30;;;11.50;99.90;;;;;;5074419;28;20040;-64
2023/08/29 04:43:27;;;;;;;2.60;0.40;;;11.50;99.90;;;;;;5088626;28;20036;-63
2023/08/29 04:45:54;;;;;;;0.47;0.20;;;11.50;99.90;;;;;;5071139;28;20051;-63
2023/08/29 04:48:21;;;;;;;0.60;0.28;;;11.50;99.90;;;;;;5063320;28;20057;-63
2023/08/29 04:50:48;;;;;;;;;;;11.50;99.90;;;;;;5071733;28;20040;-62
2023/08/29 04:53:15;;;;;;;0.57;0.30;;;11.60;99.90;;;;;;5062474;28;19927;-62
2023/08/29 04:55:43;;;;;;;1.42;0.70;;;11.50;99.90;;;;;;5074095;28;20485;-63
2023/08/29 04:58:09;;;;;;;0.30;0.30;;;11.50;99.90;;;;;;5065242;28;20059;-63
2023/08/29 05:00:36;;;;;;;0.82;0.40;;;11.50;99.90;;;;;;5070413;28;20090;-63
2023/08/29 05:03:04;;;;;;;1.17;0.40;;;11.50;99.90;;;;;;5070084;28;20093;-63
2023/08/29 05:05:31;;;;;;;0.40;0.30;;;11.60;99.90;;;;;;5088110;28;20047;-63
2023/08/29 05:07:58;;;;;;;0.35;0.35;;;11.60;99.90;;;;;;5083297;28;20040;-63
2023/08/29 05:10:27;;;;;;;2.05;0.40;;;11.50;99.90;;;;;;5063414;28;20036;-63
2023/08/29 05:12:54;;;;;;;0.50;0.40;;;11.60;99.90;;;;;;5092503;28;20051;-63
2023/08/29 05:15:20;;;;;;;0.47;0.35;;;11.60;99.90;;;;;;5067115;28;20064;-63
2023/08/29 05:17:47;;;;;;;3.25;0.40;;;11.60;99.90;;;;;;5065691;28;20124;-63
2023/08/29 05:20:14;;;;;;;0.20;0.20;;;11.60;99.90;;;;;;5057800;28;20044;-63
2023/08/29 05:22:41;;;;;;;0.63;0.22;;;11.60;99.90;;;;;;5093104;28;20046;-62
2023/08/29 05:25:08;;;;;;;0.30;0.30;;;11.60;99.90;;;;;;5082788;28;20040;-63
2023/08/29 05:27:35;;;;;;;2.83;0.50;;;11.60;99.90;;;;;;5082307;28;20045;-63
2023/08/29 05:30:03;;;;;;;0.95;0.30;;;11.70;99.90;;;;;;5080595;28;20076;-63
2023/08/29 05:32:30;;;;;;;1.38;0.30;;;11.60;99.90;;;;;;5084554;28;20032;-63
2023/08/29 05:34:57;;;;;;;;;;;11.70;99.90;;;;;;5084784;28;20079;-63
2023/08/29 05:37:24;;;;;;;3.03;0.30;;;11.70;99.90;;;;;;5088267;28;19927;-63
2023/08/29 05:39:51;;;;;;;4.63;0.20;;;11.70;99.90;;;;;;5081061;28;20036;-63
2023/08/29 05:42:18;;;;;;;;;;;11.70;99.90;;;;;;5092218;28;20032;-62
2023/08/29 05:44:45;;;;;;;1.05;0.30;;;11.70;99.90;;;;;;5089136;28;19924;-61
2023/08/29 05:47:12;;;;;;;1.85;0.40;;;11.80;99.90;;;;;;5086471;28;20052;-62
2023/08/29 05:49:39;;;;;;;0.75;0.30;;;11.80;99.90;;;;;;5076320;28;20059;-62
2023/08/29 05:52:05;;;;;;;2.17;0.40;;;11.80;99.90;;;;;;5091705;28;20044;-62
2023/08/29 05:54:36;;;;;;;0.30;0.30;;;11.80;99.90;;;;;;5075116;28;20486;-62
2023/08/29 05:57:03;;;;;;;1.33;0.30;;;11.90;99.90;;;;;;5079851;28;20039;-62
2023/08/29 05:59:30;;;;;;;0.98;0.43;;;12.00;99.90;;;;;;5090323;28;20036;-62
2023/08/29 06:01:57;;;;;;;0.63;0.20;;;12.00;99.90;;;;;;5083593;28;20405;-62
2023/08/29 06:04:24;;;;;;;1.42;0.47;;;12.00;99.90;;;;;;5078815;28;20547;-67
2023/08/29 06:06:51;;;;;;;0.25;0.25;;;12.00;99.90;;;;;;5089238;28;20063;-63
2023/08/29 06:09:18;;;;;;;1.10;0.52;;;12.10;99.90;;;;;;5087535;28;20086;-62
2023/08/29 06:11:45;;;;;;;0.77;0.50;;;12.20;99.90;;;;;;5080348;28;20043;-62
2023/08/29 06:14:12;;;;;;;0.85;0.40;;;12.20;99.90;;;;;;5083737;28;20070;-63
2023/08/29 06:16:39;;;;;;;0.98;0.30;;;12.30;99.90;;;;;;5084462;28;20047;-62
2023/08/29 06:19:06;;;;;;;2.08;0.30;;;12.30;99.90;;;;;;5090011;28;20377;-62
2023/08/29 06:21:32;;;;;;;0.55;0.35;;;12.40;99.90;;;;;;5079677;28;20490;-62
2023/08/29 06:23:59;;;;;;;0.80;0.30;;;12.50;99.90;;;;;;5086247;28;20051;-62
2023/08/29 06:26:26;;;;;;;0.55;0.30;;;12.60;99.90;;;;;;5090684;28;20050;-63
2023/08/29 06:28:53;;;;;;;0.22;0.22;;;12.70;99.90;;;;;;5068470;28;20481;-63
2023/08/29 06:31:19;;;;;;;2.55;0.45;;;12.70;99.90;;;;;;5074908;28;20051;-63
2023/08/29 06:33:46;;;;;;;0.20;0.17;;;12.70;99.90;;;;;;5084451;28;20101;-62
2023/08/29 06:36:13;;;;;;;0.40;0.30;;;12.70;99.90;;;;;;5086687;28;20044;-62
2023/08/29 06:38:40;;;;;;;0.60;0.30;;;12.60;99.90;;;;;;5081944;28;20769;-63
2023/08/29 06:41:07;;;;;;;0.60;0.25;;;12.60;99.90;;;;;;5078318;28;20046;-62
2023/08/29 06:43:34;;;;;;;0.63;0.40;;;12.60;99.90;;;;;;5083351;28;20404;-63
2023/08/29 06:46:02;;;;;;;0.85;0.30;;;12.60;99.90;;;;;;5083277;28;20393;-62
2023/08/29 06:48:29;;;;;;;2.53;0.65;;;12.60;99.90;;;;;;5090285;28;20123;-63
2023/08/29 06:50:56;;;;;;;1.02;0.52;;;12.60;99.90;;;;;;5075811;28;20076;-62
2023/08/29 06:53:25;;;;;;;0.55;0.52;;;12.60;99.90;;;;;;5090652;28;20052;-62
2023/08/29 06:55:52;;;;;;;2.55;0.77;;;12.70;99.90;;;;;;5081364;28;20123;-62
2023/08/29 06:58:18;;;;;;;2.33;0.55;;;12.70;99.90;;;;;;5082425;28;20067;-62
2023/08/29 07:00:45;;;;;;;0.68;0.45;;;12.70;99.90;;;;;;5090623;28;20505;-63
2023/08/29 07:03:12;;;;;;;1.05;0.88;;;12.60;99.90;;;;;;5084529;28;20045;-63
2023/08/29 07:05:39;;;;;;;0.75;0.60;;;12.60;99.90;;;;;;5082644;28;20450;-62
2023/08/29 07:08:06;;;;;;;3.25;0.57;;;12.60;99.90;;;;;;5082342;28;20032;-62
2023/08/29 07:10:35;;;;;;;0.95;0.50;;;12.60;99.90;;;;;;5091581;28;20097;-62
2023/08/29 07:13:03;;;;;;;0.52;0.52;;;12.70;99.90;;;;;;5079922;28;20067;-63
2023/08/29 07:15:30;;;;;;;1.60;0.80;;;12.70;99.90;;;;;;5083295;28;20036;-61
2023/08/29 07:17:57;;;;;;;1.98;0.60;;;12.70;99.90;;;;;;5082414;28;20052;-63
2023/08/29 07:20:24;;;;;;;0.70;0.43;;;12.80;99.90;;;;;;5083126;28;20044;-62
2023/08/29 07:22:51;;;;;;;1.80;0.63;;;12.80;99.90;;;;;;5085497;28;20700;-62
2023/08/29 07:25:19;;;;;;;0.65;0.50;;;12.80;99.90;;;;;;5086695;28;20049;-62
2023/08/29 07:27:46;;;;;;;1.25;0.50;;;12.70;99.90;;;;;;5094624;28;20396;-62
2023/08/29 07:30:15;;;;;;;1.17;0.70;;;12.70;99.90;;;;;;5086363;28;20048;-62
2023/08/29 07:32:44;;;;;;;0.80;0.70;;;12.80;99.90;;;;;;5082322;28;20036;-62
2023/08/29 07:35:11;;;;;;;1.65;0.60;;;12.80;99.90;;;;;;5083575;28;20052;-62
2023/08/29 07:37:37;;;;;;;0.60;0.60;;;12.80;99.90;;;;;;5088968;28;20032;-62
2023/08/29 07:40:05;;;;;;;0.93;0.40;;;12.80;99.90;;;;;;5091381;28;20036;-62
2023/08/29 07:42:31;;;;;;;1.15;0.60;;;12.90;99.90;;;;;;5094088;28;20408;-63
2023/08/29 07:44:59;;;;;;;1.83;0.80;;;12.90;99.90;;;;;;5094346;28;20071;-62
2023/08/29 07:47:25;;;;;;;6.32;1.13;;;13.10;99.90;;;;;;5091753;28;20051;-63
2023/08/29 07:49:52;;;;;;;1.67;0.70;;;13.10;99.90;;;;;;5088449;28;20040;-62
2023/08/29 07:52:19;;;;;;;1.00;0.70;;;13.20;99.90;;;;;;5083197;28;20044;-62
2023/08/29 07:54:45;;;;;;;1.83;0.85;;;13.20;99.90;;;;;;5092788;28;20051;-62
2023/08/29 07:57:12;;;;;;;0.88;0.85;;;13.30;99.90;;;;;;5088441;28;20051;-63
2023/08/29 07:59:40;;;;;;;1.95;0.70;;;13.50;99.90;;;;;;5092947;28;20507;-61
2023/08/29 08:02:06;;;;;;;1.52;0.82;;;13.50;99.90;;;;;;5094161;28;20134;-62
2023/08/29 08:04:33;;;;;;;3.13;0.85;;;13.60;99.90;;;;;;5086496;28;20048;-63
2023/08/29 08:07:00;;;;;;;1.52;0.70;;;13.70;99.90;;;;;;5068891;28;20401;-63
2023/08/29 08:09:27;;;;;;;3.70;1.40;;;13.70;99.90;;;;;;5092331;28;20093;-62
2023/08/29 08:11:53;;;;;;;4.13;1.27;;;13.70;99.90;;;;;;5088197;28;20051;-63
2023/08/29 08:14:20;;;;;;;3.50;1.77;;;13.70;99.90;;;;;;5076053;28;20055;-62
2023/08/29 08:16:47;;;;;;;2.63;1.52;;;13.60;99.90;;;;;;5074763;28;20670;-63
2023/08/29 08:19:14;;;;;;;2.40;1.67;;;13.70;99.90;;;;;;5082370;28;20044;-63
2023/08/29 08:21:40;;;;;;;1.27;1.10;;;13.70;99.90;;;;;;5081516;28;20425;-62
2023/08/29 08:24:08;;;;;;;2.08;1.25;;;13.70;99.90;;;;;;5077592;28;20393;-62
2023/08/29 08:26:34;;;;;;;1.45;0.95;;;13.70;99.90;;;;;;5082061;28;20052;-62
2023/08/29 08:29:03;;;;;;;1.23;0.88;;;13.70;99.90;;;;;;5085425;28;20048;-62
2023/08/29 08:31:31;;;;;;;3.72;0.82;;;13.90;99.90;;;;;;5082488;28;20047;-62
2023/08/29 08:33:58;;;;;;;;;;;13.90;99.90;;;;;;5093140;28;20485;-62
2023/08/29 08:36:24;;;;;;;3.88;1.38;;;13.90;99.90;;;;;;5092266;28;19924;-62
2023/08/29 08:38:51;;;;;;;2.45;1.30;;;13.90;99.90;;;;;;5073469;28;20056;-62
2023/08/29 08:41:18;;;;;;;2.05;1.20;;;14.00;99.90;;;;;;5082655;28;20047;-62
2023/08/29 08:43:47;;;;;;;0.85;0.73;;;14.00;99.90;;;;;;5088905;28;20143;-61
2023/08/29 08:46:16;;;;;;;0.77;0.60;;;14.00;99.90;;;;;;5086267;28;20121;-63
2023/08/29 08:48:43;;;;;;;0.85;0.50;;;13.90;99.90;;;;;;5085777;28;20058;-63
2023/08/29 08:51:11;;;;;;;1.23;0.40;;;13.80;99.90;;;;;;5084898;28;20052;-62
2023/08/29 08:53:40;;;;;;;0.30;0.30;;;13.90;99.90;;;;;;5093299;28;20137;-62
2023/08/29 08:56:08;;;;;;;0.30;0.30;;;14.00;99.90;;;;;;5073724;28;20048;-62
2023/08/29 08:58:36;;;;;;;0.43;0.35;;;14.10;99.90;;;;;;5083622;28;20082;-62
2023/08/29 09:01:04;;;;;;;0.75;0.30;;;14.10;99.90;;;;;;5084575;28;20047;-62
2023/08/29 09:03:31;;;;;;;0.43;0.30;;;14.20;99.90;;;;;;5090452;28;20051;-63
2023/08/29 09:05:57;;;;;;;0.43;0.25;;;14.40;99.90;;;;;;5078986;28;20119;-61
2023/08/29 09:08:24;;;;;;;0.65;0.20;;;14.60;99.90;;;;;;5082104;28;20049;-63
2023/08/29 09:10:53;;;;;;;1.77;0.20;;;14.80;99.90;;;;;;5086492;28;20041;-62
2023/08/29 09:13:20;;;;;;;0.40;0.40;;;15.00;99.90;;;;;;5089957;28;20524;-62
2023/08/29 09:15:47;;;;;;;1.35;0.28;;;15.10;99.90;;;;;;5092457;28;20044;-63
2023/08/29 09:18:24;;;;;;;0.30;0.30;;;15.10;99.90;;;;;;5092896;28;20037;-63
2023/08/29 09:20:54;;;;;;;0.50;0.30;;;15.00;99.90;;;;;;5087933;28;20056;-62
2023/08/29 09:23:22;;;;;;;0.28;0.28;;;15.00;99.90;;;;;;5080955;28;20040;-63
2023/08/29 09:25:56;;;;;;;0.30;0.28;;;15.10;99.90;;;;;;5091944;28;20448;-63
2023/08/29 09:28:26;;;;;;;0.38;0.30;;;15.10;99.90;;;;;;5085729;28;20036;-62
2023/08/29 09:30:53;;;;;;;0.30;0.22;;;15.10;99.90;;;;;;5086283;28;20043;-63
2023/08/29 09:33:21;;;;;;;1.05;0.52;;;15.10;99.90;;;;;;5091548;28;20044;-63
2023/08/29 09:35:49;;;;;;;0.70;0.30;;;15.10;99.90;;;;;;5086795;28;20432;-63
2023/08/29 09:38:18;;;;;;;0.95;0.30;;;15.20;99.90;;;;;;5091417;28;20075;-63
2023/08/29 09:40:49;;;;;;;1.85;0.30;;;15.30;99.90;;;;;;5088972;28;20048;-63
2023/08/29 09:43:17;;;;;;;0.50;0.28;;;15.30;99.90;;;;;;5080388;28;20115;-63
2023/08/29 09:45:52;;;;;;;0.68;0.30;;;15.30;99.90;;;;;;5083753;28;20036;-63
2023/08/29 09:48:19;;;;;;;5.20;0.30;;;15.30;99.90;;;;;;5091473;28;20413;-63
2023/08/29 09:50:47;;;;;;;3.20;0.35;;;15.40;99.90;;;;;;5084484;28;20070;-63
2023/08/29 09:53:19;;;;;;;0.60;0.40;;;15.50;99.90;;;;;;5084860;28;20046;-62
2023/08/29 09:56:05;;;;;;;4.45;0.40;;;15.60;99.90;;;;;;5084824;28;20042;-63
2023/08/29 09:58:33;;;;;;;0.50;0.50;;;15.60;99.90;;;;;;5091697;28;20069;-63
2023/08/29 10:01:00;;;;;;;0.88;0.52;;;15.40;99.90;;;;;;5091161;28;20050;-63
2023/08/29 10:03:28;;;;;;;0.98;0.40;;;15.40;99.90;;;;;;5091663;28;20077;-63
2023/08/29 10:05:57;;;;;;;0.35;0.32;;;15.20;99.90;;;;;;5086822;28;20619;-63
2023/08/29 10:08:28;;;;;;;0.85;0.47;;;15.10;99.90;;;;;;5086619;28;20040;-63
2023/08/29 10:10:56;;;;;;;1.70;0.40;;;15.20;99.90;;;;;;5091497;28;20047;-62
2023/08/29 10:13:24;;;;;;;1.10;0.40;;;15.20;99.90;;;;;;5082383;28;20538;-63
2023/08/29 10:15:52;;;;;;;0.73;0.35;;;15.10;99.90;;;;;;5079047;28;20051;-62
2023/08/29 10:18:19;;;;;;;0.95;0.40;;;15.00;99.90;;;;;;5087468;28;20055;-63
2023/08/29 10:20:48;;;;;;;1.05;0.30;;;15.00;99.90;;;;;;5083369;28;20040;-62
2023/08/29 10:23:17;;;;;;;0.40;0.40;;;15.00;99.90;;;;;;5084365;28;20051;-62
2023/08/29 10:25:46;;;;;;;0.90;0.68;;;15.00;99.90;;;;;;5088476;28;20036;-62
2023/08/29 10:28:14;;;;;;;0.30;0.30;;;15.00;99.90;;;;;;5070638;28;20037;-63
2023/08/29 10:30:47;;;;;;;0.45;0.40;;;14.90;99.90;;;;;;5088290;28;20097;-62
2023/08/29 10:33:14;;;;;;;0.93;0.43;;;14.90;99.90;;;;;;5086648;28;20035;-63
2023/08/29 10:35:41;;;;;;;;;;;14.80;99.90;;;;;;5089562;28;20529;-62
2023/08/29 10:38:15;;;;;;;2.95;0.35;;;14.90;99.90;;;;;;5085768;28;20014;-63
2023/08/29 10:40:43;;;;;;;1.65;0.50;;;14.80;99.90;;;;;;5077065;28;20064;-63
2023/08/29 10:43:20;;;;;;;0.70;0.30;;;14.80;99.90;;;;;;5062919;28;20085;-62
2023/08/29 10:45:57;;;;;;;1.25;0.40;;;14.80;99.90;;;;;;5088148;28;20064;-63
2023/08/29 10:48:30;;;;;;;1.17;0.30;;;14.70;99.90;;;;;;5078575;28;20116;-62
2023/08/29 10:51:09;;;;;;;0.60;0.28;;;14.70;99.90;;;;;;5083885;28;20048;-63
2023/08/29 10:53:57;;;;;;;0.52;0.22;;;14.70;99.90;;;;;;5074426;28;20041;-63
2023/08/29 10:56:38;;;;;;;0.75;0.32;;;14.70;99.90;;;;;;5083190;28;20043;-62
2023/08/29 10:59:05;;;;;;;2.45;0.30;;;14.70;99.90;;;;;;5095495;28;20040;-62
2023/08/29 11:01:32;;;;;;;1.55;0.40;;;14.70;99.90;;;;;;5083869;28;20040;-63
2023/08/29 11:04:03;;;;;;;0.47;0.30;;;14.60;99.90;;;;;;5080069;28;20047;-63
2023/08/29 11:06:50;;;;;;;0.80;0.30;;;14.60;99.90;;;;;;5086602;28;20115;-63
2023/08/29 11:09:22;;;;;;;2.10;0.40;;;14.80;99.90;;;;;;5088322;28;20072;-63
2023/08/29 11:12:08;;;;;;;1.67;0.40;;;14.90;99.90;;;;;;5087370;28;20515;-63
2023/08/29 11:14:55;;;;;;;0.40;0.40;;;15.00;99.90;;;;;;5091864;28;20047;-63
2023/08/29 11:17:23;;;;;;;0.40;0.40;;;15.10;99.90;;;;;;5083206;28;20377;-62
2023/08/29 11:19:58;;;;;;;0.88;0.22;;;15.30;99.90;;;;;;5092661;28;20036;-63
2023/08/29 11:22:28;;;;;;;0.30;0.20;;;15.50;99.90;;;;;;5086520;28;20040;-63
2023/08/29 11:24:55;;;;;;;1.08;0.32;;;15.60;99.90;;;;;;5086575;28;20481;-61
2023/08/29 11:27:24;;;;;;;1.20;0.50;;;15.80;99.90;;;;;;5087247;28;20037;-61
2023/08/29 11:29:55;;;;;;;0.30;0.30;;;15.70;99.90;;;;;;5093494;28;20366;-63
2023/08/29 11:32:50;;;;;;;0.57;0.40;;;15.70;99.90;;;;;;5066397;28;20044;-63
2023/08/29 11:35:17;;;;;;;0.55;0.30;;;15.80;99.90;;;;;;5081160;28;20044;-62
2023/08/29 11:37:43;;;;;;;0.68;0.28;;;15.70;99.90;;;;;;5086339;28;20055;-62
2023/08/29 11:40:11;;;;;;;0.50;0.28;;;15.50;99.90;;;;;;5086615;28;20044;-62
2023/08/29 11:42:54;;;;;;;1.85;0.30;;;15.40;99.90;;;;;;5082370;28;20047;-63
2023/08/29 11:45:40;;;;;;;0.52;0.30;;;15.40;99.90;;;;;;5084592;28;20046;-63
2023/08/29 11:48:11;;;;;;;1.10;0.38;;;15.40;99.90;;;;;;5078274;28;20106;-62
2023/08/29 11:50:39;;;;;;;0.20;0.20;;;15.30;99.90;;;;;;5083971;28;20044;-63
2023/08/29 11:53:06;;;;;;;0.47;0.20;;;15.30;99.90;;;;;;5092382;28;20043;-62
2023/08/29 11:55:33;;;;;;;0.63;0.35;;;15.30;99.90;;;;;;5087291;28;20071;-62
2023/08/29 11:58:00;;;;;;;1.55;0.40;;;15.30;99.90;;;;;;5094120;28;20044;-62
2023/08/29 12:00:27;;;;;;;0.30;0.20;;;15.30;99.90;;;;;;5094314;28;20040;-62
2023/08/29 12:02:53;;;;;;;0.50;0.20;;;15.30;99.90;;;;;;5093056;28;20052;-63
2023/08/29 12:05:20;;;;;;;0.30;0.25;;;15.30;99.90;;;;;;5092807;28;20550;-63
2023/08/29 12:07:51;;;;;;;0.77;0.28;;;15.20;99.90;;;;;;5093391;28;20039;-63
2023/08/29 12:10:19;;;;;;;1.08;0.43;;;15.30;99.90;;;;;;5085439;28;20028;-62
2023/08/29 12:12:46;;;;;;;0.38;0.30;;;15.30;99.90;;;;;;5087278;28;20051;-63
2023/08/29 12:15:16;;;;;;;0.30;0.20;;;15.30;99.90;;;;;;5088014;28;20032;-62
2023/08/29 12:17:56;;;;;;;0.20;0.20;;;15.20;99.90;;;;;;5090365;28;20083;-63
2023/08/29 12:20:23;;;;;;;0.20;0.20;;;15.20;99.90;;;;;;5089154;28;20361;-63
2023/08/29 12:22:52;;;;;;;0.30;0.28;;;15.20;99.90;;;;;;5092581;28;20038;-63
2023/08/29 12:25:19;;;;;;;0.25;0.20;;;15.20;99.90;;;;;;5085615;28;20040;-63
2023/08/29 12:27:47;;;;;;;0.40;0.30;;;15.20;99.90;;;;;;5081656;28;20048;-63
2023/08/29 12:30:15;;;;;;;0.35;0.35;;;15.20;99.90;;;;;;5094148;28;20038;-62
2023/08/29 12:32:45;;;;;;;;;;;15.30;99.90;;;;;;5092857;28;20033;-63
2023/08/29 12:35:15;;;;;;;4.18;0.47;;;15.30;99.90;;;;;;5092634;28;19927;-63
2023/08/29 12:37:42;;;;;;;0.70;0.45;;;15.10;99.90;;;;;;5085873;28;20072;-63
2023/08/29 12:40:09;;;;;;;1.10;0.32;;;15.20;99.90;;;;;;5085416;28;20036;-63
2023/08/29 12:42:36;;;;;;;1.85;0.20;;;15.30;99.90;;;;;;5093486;28;20040;-63
2023/08/29 12:45:04;;;;;;;;;;;15.40;99.90;;;;;;5082749;28;20101;-63
2023/08/29 12:47:30;;;;;;;0.68;0.20;;;15.50;99.90;;;;;;5081007;28;19920;-63
2023/08/29 12:49:57;;;;;;;0.88;0.25;;;15.50;99.90;;;;;;5084644;28;20044;-63
2023/08/29 12:52:24;;;;;;;0.88;0.17;;;15.30;99.90;;;;;;5093888;28;20043;-62
2023/08/29 12:54:51;;;;;;;2.08;0.38;;;15.30;99.90;;;;;;5083148;28;20048;-62
2023/08/29 12:57:18;;;;;;;0.15;0.15;;;15.20;99.90;;;;;;5081538;28;20043;-63